Time;durP1;ratioP1;P1;durP2;ratioP2;P2;SDS_P1;SDS_P2;PMS_P1;PMS_P2;Temp;Humidity;BMP_temperature;BMP_pressure;BME280_temperature;BME280_humidity;BME280_pressure;Samples;Min_cycle;Max_cycle;Signal;HPM_P1;HPM_P2
2023/05/23 00:01:15;;;;;;;9.10;5.93;;;18.00;99.90;;;;;;5051842;28;20387;-74
2023/05/23 00:03:41;;;;;;;7.55;5.50;;;18.00;99.90;;;;;;5051883;28;20021;-75
2023/05/23 00:06:07;;;;;;;10.05;5.63;;;18.00;99.90;;;;;;5050158;28;20090;-74
2023/05/23 00:08:33;;;;;;;7.80;5.68;;;18.00;99.90;;;;;;5056450;28;20082;-75
2023/05/23 00:10:59;;;;;;;9.00;5.60;;;17.90;99.90;;;;;;5054263;28;20029;-75
2023/05/23 00:13:25;;;;;;;10.68;5.50;;;17.90;99.90;;;;;;5057579;28;20126;-75
2023/05/23 00:15:51;;;;;;;9.93;6.53;;;17.90;99.90;;;;;;5049828;28;20383;-74
2023/05/23 00:18:17;;;;;;;9.13;5.53;;;17.90;99.90;;;;;;5050939;28;20029;-74
2023/05/23 00:20:44;;;;;;;10.00;5.57;;;17.90;99.90;;;;;;5054986;28;20036;-75
2023/05/23 00:23:17;;;;;;;8.82;6.38;;;17.90;99.90;;;;;;5055041;28;20039;-74
2023/05/23 00:25:47;;;;;;;10.60;6.50;;;17.80;99.90;;;;;;5049830;28;20025;-75
2023/05/23 00:28:13;;;;;;;9.00;5.80;;;17.80;99.90;;;;;;5055360;28;20024;-75
2023/05/23 00:30:39;;;;;;;10.23;5.75;;;17.70;99.90;;;;;;5064492;28;20060;-75
2023/05/23 00:33:05;;;;;;;9.40;5.80;;;17.60;99.90;;;;;;5052458;28;20075;-75
2023/05/23 00:35:30;;;;;;;10.07;5.60;;;17.60;99.90;;;;;;5054650;28;20024;-75
2023/05/23 00:37:56;;;;;;;9.02;5.53;;;17.50;99.90;;;;;;5050554;28;20395;-75
2023/05/23 00:40:22;;;;;;;9.25;5.53;;;17.50;99.90;;;;;;5053321;28;20059;-75
2023/05/23 00:42:48;;;;;;;9.32;5.90;;;17.40;99.90;;;;;;5047782;28;20028;-75
2023/05/23 00:45:14;;;;;;;8.88;6.25;;;17.40;99.90;;;;;;5047869;28;20037;-74
2023/05/23 00:47:40;;;;;;;11.75;6.45;;;17.50;99.90;;;;;;5050955;28;20033;-75
2023/05/23 00:50:11;;;;;;;10.98;5.88;;;17.40;99.90;;;;;;5057241;28;20033;-75
2023/05/23 00:52:37;;;;;;;7.80;5.05;;;17.50;99.90;;;;;;5047721;28;20031;-75
2023/05/23 00:55:04;;;;;;;10.52;6.22;;;17.40;99.90;;;;;;5054718;28;20037;-74
2023/05/23 00:57:33;;;;;;;7.28;5.20;;;17.50;99.90;;;;;;5050246;28;20064;-74
2023/05/23 00:59:59;;;;;;;7.63;5.63;;;17.50;99.90;;;;;;5051727;28;20033;-75
2023/05/23 01:02:26;;;;;;;9.95;5.68;;;17.50;99.90;;;;;;5049258;28;20104;-75
2023/05/23 01:04:54;;;;;;;8.57;6.05;;;17.50;99.90;;;;;;5052652;28;20025;-75
2023/05/23 01:07:20;;;;;;;10.45;6.95;;;17.60;99.90;;;;;;5054586;28;20021;-75
2023/05/23 01:09:46;;;;;;;10.15;5.93;;;17.60;99.90;;;;;;5054379;28;20028;-74
2023/05/23 01:12:37;;;;;;;12.98;5.82;;;17.60;99.90;;;;;;5059996;28;20032;-75
2023/05/23 01:15:12;;;;;;;8.85;6.13;;;17.50;99.90;;;;;;5048489;28;20029;-75
2023/05/23 01:17:40;;;;;;;8.25;5.60;;;17.40;99.90;;;;;;5048926;28;20107;-75
2023/05/23 01:20:14;;;;;;;8.73;5.13;;;17.40;99.90;;;;;;5054181;28;20028;-74
2023/05/23 01:23:01;;;;;;;8.80;5.07;;;17.60;99.90;;;;;;5049260;28;20040;-75
2023/05/23 01:25:45;;;;;;;8.60;5.72;;;17.60;99.90;;;;;;5049266;28;20095;-75
2023/05/23 01:28:14;;;;;;;;;;;17.50;99.90;;;;;;5050358;28;20029;-75
2023/05/23 01:30:43;;;;;;;9.68;5.57;;;17.40;99.90;;;;;;5061913;28;19909;-75
2023/05/23 01:33:11;;;;;;;9.80;5.50;;;17.40;99.90;;;;;;5049695;28;20033;-75
2023/05/23 01:35:37;;;;;;;6.95;5.68;;;17.40;99.90;;;;;;5051683;28;20439;-75
2023/05/23 01:38:03;;;;;;;10.00;5.43;;;17.30;99.90;;;;;;5048651;28;20049;-74
2023/05/23 01:40:29;;;;;;;8.68;5.80;;;17.20;99.90;;;;;;5051446;28;20150;-74
2023/05/23 01:42:58;;;;;;;9.48;5.28;;;17.20;99.90;;;;;;5052810;28;20028;-74
2023/05/23 01:45:28;;;;;;;10.93;5.57;;;17.20;99.90;;;;;;5052871;28;20086;-75
2023/05/23 01:47:55;;;;;;;11.65;6.13;;;17.00;99.90;;;;;;5051801;28;20029;-75
2023/05/23 01:50:22;;;;;;;9.77;5.63;;;17.00;99.90;;;;;;5049501;28;20491;-75
2023/05/23 01:52:48;;;;;;;9.73;5.47;;;16.90;99.90;;;;;;5052916;28;20079;-75
2023/05/23 01:55:17;;;;;;;8.82;5.82;;;16.80;99.90;;;;;;5049725;28;20040;-74
2023/05/23 01:57:44;;;;;;;10.30;5.57;;;17.10;99.90;;;;;;5050938;28;20464;-75
2023/05/23 02:00:11;;;;;;;7.75;5.28;;;16.90;99.90;;;;;;5050703;28;20604;-74
2023/05/23 02:02:36;;;;;;;8.98;6.10;;;16.70;99.90;;;;;;5048392;28;25989;-75
2023/05/23 02:05:03;;;;;;;10.50;5.75;;;16.70;99.90;;;;;;5048346;28;20039;-74
2023/05/23 02:07:28;;;;;;;10.75;6.20;;;16.80;99.90;;;;;;5053294;28;20035;-75
2023/05/23 02:09:55;;;;;;;9.05;6.40;;;16.70;99.90;;;;;;5051486;28;20163;-74
2023/05/23 02:12:20;;;;;;;10.68;5.28;;;16.40;99.90;;;;;;5048188;28;20402;-75
2023/05/23 02:14:46;;;;;;;8.35;5.68;;;16.20;99.90;;;;;;5050003;28;20036;-74
2023/05/23 02:17:13;;;;;;;9.23;5.55;;;16.20;99.90;;;;;;5046581;28;20104;-74
2023/05/23 02:19:39;;;;;;;10.32;5.63;;;16.20;99.90;;;;;;5055438;28;20135;-75
2023/05/23 02:22:05;;;;;;;10.43;6.13;;;16.10;99.90;;;;;;5050293;28;20052;-74
2023/05/23 02:24:30;;;;;;;8.18;5.97;;;16.10;99.90;;;;;;5053965;28;20029;-74
2023/05/23 02:26:56;;;;;;;9.20;5.47;;;16.00;99.90;;;;;;5052503;28;20082;-75
2023/05/23 02:29:22;;;;;;;8.68;5.53;;;16.00;99.90;;;;;;5059172;28;20029;-75
2023/05/23 02:31:47;;;;;;;10.35;5.78;;;15.90;99.90;;;;;;5054185;28;20028;-74
2023/05/23 02:34:13;;;;;;;11.63;5.78;;;16.10;99.90;;;;;;5052115;28;20098;-75
2023/05/23 02:36:39;;;;;;;9.38;6.10;;;16.20;99.90;;;;;;5050684;28;20025;-75
2023/05/23 02:39:05;;;;;;;9.82;5.57;;;16.20;99.90;;;;;;5052432;28;20487;-75
2023/05/23 02:41:31;;;;;;;11.07;6.32;;;16.20;99.90;;;;;;5055163;28;20033;-74
2023/05/23 02:43:57;;;;;;;10.68;6.40;;;16.10;99.90;;;;;;5050830;28;20032;-75
2023/05/23 02:46:23;;;;;;;11.27;6.20;;;16.10;99.90;;;;;;5051317;28;20502;-74
2023/05/23 02:48:49;;;;;;;9.75;6.43;;;16.00;99.90;;;;;;5051851;28;20025;-75
2023/05/23 02:51:15;;;;;;;10.40;6.50;;;16.10;99.90;;;;;;5052563;28;20025;-75
2023/05/23 02:53:41;;;;;;;10.63;6.35;;;16.20;99.90;;;;;;5053889;28;20036;-75
2023/05/23 02:56:07;;;;;;;11.40;6.53;;;16.20;99.90;;;;;;5050316;28;20071;-75
2023/05/23 02:58:36;;;;;;;10.52;6.25;;;16.10;99.90;;;;;;5052096;28;20501;-74
2023/05/23 03:01:03;;;;;;;9.70;6.25;;;16.10;99.90;;;;;;5050779;28;20052;-75
2023/05/23 03:03:30;;;;;;;8.43;5.70;;;16.10;99.90;;;;;;5047841;28;20029;-74
2023/05/23 03:05:59;;;;;;;12.68;6.18;;;15.80;99.90;;;;;;5045372;28;20033;-74
2023/05/23 03:08:25;;;;;;;8.20;6.03;;;16.00;99.90;;;;;;5053241;28;20040;-75
2023/05/23 03:10:51;;;;;;;10.45;6.60;;;16.00;99.90;;;;;;5046205;28;20381;-74
2023/05/23 03:13:17;;;;;;;11.13;6.63;;;15.80;99.90;;;;;;5052759;28;20044;-74
2023/05/23 03:15:43;;;;;;;10.10;6.47;;;15.70;99.90;;;;;;5047484;28;20036;-74
2023/05/23 03:18:09;;;;;;;11.15;6.70;;;15.60;99.90;;;;;;5048417;28;20033;-74
2023/05/23 03:20:35;;;;;;;10.18;6.57;;;15.60;99.90;;;;;;5046693;28;20041;-74
2023/05/23 03:23:01;;;;;;;10.45;6.85;;;15.60;99.90;;;;;;5043377;28;20356;-75
2023/05/23 03:25:26;;;;;;;9.45;6.15;;;15.60;99.90;;;;;;5046380;28;20056;-74
2023/05/23 03:27:52;;;;;;;9.43;6.47;;;15.70;99.90;;;;;;5059608;28;20124;-74
2023/05/23 03:30:18;;;;;;;10.38;6.38;;;15.40;99.90;;;;;;5055523;28;20028;-74
2023/05/23 03:32:43;;;;;;;8.57;6.22;;;15.40;99.90;;;;;;5061376;28;20024;-74
2023/05/23 03:35:10;;;;;;;14.20;6.45;;;15.50;99.90;;;;;;5044859;28;20360;-74
2023/05/23 03:37:36;;;;;;;11.95;6.43;;;15.70;99.90;;;;;;5051551;28;20471;-74
2023/05/23 03:40:02;;;;;;;10.77;6.07;;;15.90;99.90;;;;;;5048623;28;20037;-74
2023/05/23 03:42:28;;;;;;;8.48;6.00;;;16.00;99.90;;;;;;5045906;28;20060;-74
2023/05/23 03:44:54;;;;;;;11.63;6.78;;;15.80;99.90;;;;;;5054042;28;20063;-74
2023/05/23 03:47:19;;;;;;;10.85;6.82;;;15.90;99.90;;;;;;5052154;28;20040;-74
2023/05/23 03:49:45;;;;;;;10.00;6.63;;;15.70;99.90;;;;;;5047538;28;20673;-74
2023/05/23 03:52:11;;;;;;;9.45;6.47;;;15.50;99.90;;;;;;5047129;28;20529;-74
2023/05/23 03:54:36;;;;;;;10.40;7.28;;;15.40;99.90;;;;;;5050655;28;20055;-74
2023/05/23 03:57:02;;;;;;;11.13;6.65;;;15.50;99.90;;;;;;5052094;28;20048;-74
2023/05/23 03:59:28;;;;;;;10.93;6.65;;;15.70;99.90;;;;;;5049996;28;20573;-74
2023/05/23 04:01:57;;;;;;;13.13;6.68;;;15.80;99.90;;;;;;5048995;28;20560;-74
2023/05/23 04:04:23;;;;;;;11.60;7.25;;;15.80;99.90;;;;;;5048756;28;20063;-74
2023/05/23 04:06:50;;;;;;;10.32;6.88;;;15.70;99.90;;;;;;5044552;28;20037;-75
2023/05/23 04:09:16;;;;;;;13.63;6.95;;;15.80;99.90;;;;;;5047078;28;20043;-74
2023/05/23 04:11:42;;;;;;;12.52;6.80;;;15.70;99.90;;;;;;5046464;28;20028;-74
2023/05/23 04:14:08;;;;;;;14.65;6.95;;;15.60;99.90;;;;;;5047119;28;20491;-74
2023/05/23 04:16:34;;;;;;;9.45;7.25;;;15.70;99.90;;;;;;5048715;28;20056;-74
2023/05/23 04:19:04;;;;;;;13.80;7.00;;;15.90;99.90;;;;;;5046592;28;20029;-74
2023/05/23 04:21:30;;;;;;;9.52;7.07;;;16.10;99.90;;;;;;5045875;28;20052;-74
2023/05/23 04:23:56;;;;;;;13.45;7.38;;;16.20;99.90;;;;;;5045233;28;20067;-74
2023/05/23 04:26:21;;;;;;;9.68;6.70;;;16.30;99.90;;;;;;5046959;28;21133;-75
2023/05/23 04:28:47;;;;;;;11.90;7.00;;;16.10;99.90;;;;;;5046052;28;20029;-74
2023/05/23 04:31:13;;;;;;;10.70;7.40;;;16.00;99.90;;;;;;5045496;28;20431;-74
2023/05/23 04:33:40;;;;;;;10.70;8.07;;;16.00;99.90;;;;;;5043860;28;20528;-74
2023/05/23 04:36:08;;;;;;;11.25;7.00;;;16.10;99.90;;;;;;5044229;28;20021;-74
2023/05/23 04:38:34;;;;;;;9.80;7.10;;;16.00;99.90;;;;;;5042505;28;20037;-74
2023/05/23 04:41:00;;;;;;;9.80;7.18;;;16.00;99.90;;;;;;5051168;28;20410;-74
2023/05/23 04:43:26;;;;;;;10.70;6.93;;;16.00;99.90;;;;;;5045659;28;20037;-74
2023/05/23 04:45:56;;;;;;;14.75;7.70;;;15.80;99.90;;;;;;5045392;28;20120;-74
2023/05/23 04:48:22;;;;;;;10.90;6.45;;;15.70;99.90;;;;;;5058143;28;20025;-74
2023/05/23 04:50:49;;;;;;;10.15;7.22;;;15.50;99.90;;;;;;5046039;28;20430;-75
2023/05/23 04:53:15;;;;;;;11.35;7.97;;;15.70;99.90;;;;;;5043369;28;20092;-74
2023/05/23 04:55:41;;;;;;;11.23;7.35;;;15.80;99.90;;;;;;5045330;28;20049;-75
2023/05/23 04:58:07;;;;;;;12.23;7.85;;;16.00;99.90;;;;;;5045031;28;20072;-74
2023/05/23 05:00:33;;;;;;;12.07;7.65;;;16.00;99.90;;;;;;5045014;28;20569;-74
2023/05/23 05:02:58;;;;;;;10.50;7.13;;;16.00;99.90;;;;;;5044816;28;20028;-74
2023/05/23 05:05:24;;;;;;;12.90;6.85;;;16.10;99.90;;;;;;5044504;28;20063;-75
2023/05/23 05:07:49;;;;;;;9.52;7.13;;;16.20;99.90;;;;;;5043347;28;20131;-75
2023/05/23 05:10:16;;;;;;;13.07;7.55;;;16.30;99.90;;;;;;5045411;28;20098;-75
2023/05/23 05:12:45;;;;;;;9.52;7.47;;;16.20;99.90;;;;;;5048778;28;20025;-75
2023/05/23 05:15:12;;;;;;;9.93;7.13;;;16.10;99.90;;;;;;5043779;28;20045;-75
2023/05/23 05:17:38;;;;;;;12.15;7.65;;;16.10;99.90;;;;;;5040770;28;20091;-75
2023/05/23 05:20:07;;;;;;;10.15;6.95;;;16.10;99.90;;;;;;5051061;28;20464;-75
2023/05/23 05:22:34;;;;;;;12.20;7.72;;;16.30;99.90;;;;;;5044053;28;20094;-75
2023/05/23 05:25:01;;;;;;;10.48;7.25;;;16.50;99.90;;;;;;5041053;28;20025;-75
2023/05/23 05:27:27;;;;;;;12.32;7.45;;;16.60;99.90;;;;;;5047248;28;20032;-75
2023/05/23 05:29:52;;;;;;;10.50;7.28;;;16.70;99.90;;;;;;5053875;28;20066;-76
2023/05/23 05:32:18;;;;;;;10.77;7.68;;;16.70;99.90;;;;;;5041555;28;20029;-75
2023/05/23 05:34:45;;;;;;;16.85;8.00;;;16.70;99.90;;;;;;5044553;28;20025;-76
2023/05/23 05:37:12;;;;;;;10.82;7.38;;;16.70;99.90;;;;;;5042300;28;20119;-78
2023/05/23 05:39:38;;;;;;;11.52;7.50;;;16.70;99.90;;;;;;5048560;28;20036;-75
2023/05/23 05:42:04;;;;;;;10.40;7.05;;;16.70;99.90;;;;;;5061167;28;20233;-74
2023/05/23 05:44:30;;;;;;;10.85;7.57;;;16.80;99.90;;;;;;5064647;28;20033;-75
2023/05/23 05:46:55;;;;;;;13.07;6.70;;;16.80;99.90;;;;;;5053512;28;20391;-75
2023/05/23 05:49:21;;;;;;;13.38;7.60;;;16.80;99.90;;;;;;5053502;28;20451;-75
2023/05/23 05:51:47;;;;;;;11.63;7.43;;;16.90;99.90;;;;;;5053739;28;20029;-76
2023/05/23 05:54:12;;;;;;;10.82;7.65;;;17.00;99.90;;;;;;5052417;28;20589;-75
2023/05/23 05:56:38;;;;;;;12.23;8.23;;;17.00;99.90;;;;;;5047266;28;20544;-75
2023/05/23 05:59:04;;;;;;;10.80;8.23;;;17.00;99.90;;;;;;5046762;28;20132;-76
2023/05/23 06:01:29;;;;;;;11.07;7.18;;;17.10;99.90;;;;;;5053280;28;20036;-76
2023/05/23 06:03:55;;;;;;;14.95;8.07;;;17.10;99.90;;;;;;5052919;28;20409;-75
2023/05/23 06:06:21;;;;;;;11.05;7.65;;;17.10;99.90;;;;;;5051926;28;20047;-76
2023/05/23 06:08:47;;;;;;;11.20;7.90;;;17.20;99.90;;;;;;5048237;28;20108;-76
2023/05/23 06:11:12;;;;;;;9.55;7.53;;;17.20;99.90;;;;;;5056754;28;20035;-76
2023/05/23 06:13:38;;;;;;;11.77;8.25;;;17.30;99.90;;;;;;5054808;28;20048;-75
2023/05/23 06:16:05;;;;;;;9.32;7.22;;;17.30;99.90;;;;;;5045589;28;20201;-75
2023/05/23 06:18:30;;;;;;;13.68;7.60;;;17.40;99.90;;;;;;5046927;28;20036;-76
2023/05/23 06:20:56;;;;;;;9.90;7.40;;;17.40;99.90;;;;;;5052134;28;20059;-76
2023/05/23 06:23:21;;;;;;;10.85;8.13;;;17.60;99.90;;;;;;5046645;28;20036;-76
2023/05/23 06:25:47;;;;;;;10.07;6.82;;;17.70;99.90;;;;;;5055359;28;20032;-76
2023/05/23 06:28:13;;;;;;;11.32;7.68;;;17.80;99.90;;;;;;5054327;28;20021;-76
2023/05/23 06:30:39;;;;;;;11.25;7.07;;;17.90;99.90;;;;;;5044097;28;20068;-76
2023/05/23 06:33:04;;;;;;;11.30;7.07;;;18.00;99.90;;;;;;5047464;28;20037;-76
2023/05/23 06:35:30;;;;;;;11.70;7.68;;;18.00;99.90;;;;;;5046232;28;20037;-77
2023/05/23 06:37:56;;;;;;;12.68;7.32;;;18.10;99.90;;;;;;5053610;28;20033;-76
2023/05/23 06:40:21;;;;;;;10.93;7.43;;;18.20;99.90;;;;;;5051422;28;20040;-76
2023/05/23 06:42:47;;;;;;;10.63;7.50;;;18.20;99.90;;;;;;5051493;28;20601;-76
2023/05/23 06:45:13;;;;;;;9.73;6.90;;;18.40;99.90;;;;;;5052006;28;20036;-76
2023/05/23 06:47:42;;;;;;;11.45;7.22;;;18.50;99.90;;;;;;5048142;28;20039;-76
2023/05/23 06:50:08;;;;;;;11.35;6.45;;;18.70;99.90;;;;;;5046967;28;20016;-76
2023/05/23 06:52:34;;;;;;;9.00;6.47;;;18.80;99.90;;;;;;5052891;28;20025;-77
2023/05/23 06:54:59;;;;;;;9.25;6.63;;;19.00;99.90;;;;;;5046812;28;20079;-77
2023/05/23 06:57:25;;;;;;;12.35;7.22;;;19.10;99.90;;;;;;5051106;28;20037;-75
2023/05/23 06:59:51;;;;;;;11.25;7.38;;;19.30;99.90;;;;;;5051445;28;20041;-77
2023/05/23 07:02:16;;;;;;;11.00;7.18;;;19.60;99.90;;;;;;5046124;28;20025;-77
2023/05/23 07:04:42;;;;;;;10.95;6.88;;;19.80;99.90;;;;;;5046980;28;20025;-75
2023/05/23 07:07:08;;;;;;;9.40;6.47;;;20.00;99.90;;;;;;5044867;28;20060;-76
2023/05/23 07:09:33;;;;;;;14.25;7.90;;;20.00;99.90;;;;;;5052301;28;20040;-78
2023/05/23 07:11:59;;;;;;;10.00;6.32;;;20.20;99.90;;;;;;5042149;28;20064;-74
2023/05/23 07:14:25;;;;;;;11.05;6.47;;;20.40;99.90;;;;;;5043944;28;20037;-76
2023/05/23 07:16:50;;;;;;;9.68;6.75;;;20.60;99.90;;;;;;5043234;28;20067;-79
2023/05/23 07:19:16;;;;;;;9.63;6.32;;;20.80;99.90;;;;;;5041858;28;20435;-77
2023/05/23 07:21:42;;;;;;;9.90;6.43;;;21.30;99.90;;;;;;5048900;28;20103;-74
2023/05/23 07:24:07;;;;;;;10.25;7.07;;;21.90;99.60;;;;;;5042750;28;20491;-74
2023/05/23 07:26:33;;;;;;;9.93;6.28;;;22.70;98.50;;;;;;5044277;28;20025;-75
2023/05/23 07:28:59;;;;;;;10.18;6.60;;;23.70;97.40;;;;;;5048839;28;20039;-76
2023/05/23 07:31:24;;;;;;;9.77;7.07;;;24.50;95.80;;;;;;5042739;28;20033;-76
2023/05/23 07:33:50;;;;;;;11.52;6.90;;;25.10;95.70;;;;;;5044208;28;20032;-76
2023/05/23 07:36:16;;;;;;;26.23;8.52;;;25.70;95.30;;;;;;5043846;28;20025;-76
2023/05/23 07:38:41;;;;;;;12.10;7.05;;;26.20;94.60;;;;;;5043321;28;20660;-76
2023/05/23 07:41:07;;;;;;;9.25;6.28;;;26.50;93.30;;;;;;5042001;28;20540;-77
2023/05/23 07:43:33;;;;;;;9.95;6.82;;;26.00;93.70;;;;;;5042140;28;20372;-75
2023/05/23 07:45:58;;;;;;;10.07;6.28;;;26.90;93.10;;;;;;5041499;28;20025;-76
2023/05/23 07:48:26;;;;;;;9.82;6.70;;;27.30;92.50;;;;;;5045600;28;20139;-76
2023/05/23 07:50:53;;;;;;;11.32;6.88;;;27.20;92.30;;;;;;5046647;28;20024;-75
2023/05/23 07:53:20;;;;;;;11.05;6.07;;;26.80;93.10;;;;;;5041337;28;20044;-75
2023/05/23 07:55:46;;;;;;;41.22;9.32;;;26.70;93.00;;;;;;5042670;28;20056;-75
2023/05/23 07:58:12;;;;;;;17.80;7.25;;;26.00;93.50;;;;;;5049356;28;20032;-75
2023/05/23 08:00:40;;;;;;;55.28;11.55;;;26.30;93.50;;;;;;5041110;28;20025;-74
2023/05/23 08:03:06;;;;;;;13.05;6.38;;;25.60;93.80;;;;;;5042323;28;20033;-76
2023/05/23 08:05:32;;;;;;;9.85;6.43;;;24.80;94.50;;;;;;5043509;28;20033;-75
2023/05/23 08:07:58;;;;;;;66.95;12.57;;;24.80;94.90;;;;;;5041171;28;20029;-75
2023/05/23 08:10:27;;;;;;;10.45;6.80;;;24.10;95.40;;;;;;5043768;28;20033;-75
2023/05/23 08:12:53;;;;;;;8.77;6.05;;;23.70;96.10;;;;;;5042204;28;20139;-75
2023/05/23 08:15:19;;;;;;;9.02;7.65;;;23.50;97.00;;;;;;5043252;28;20063;-75
2023/05/23 08:17:44;;;;;;;9.88;6.22;;;23.20;97.00;;;;;;5043440;28;20570;-76
2023/05/23 08:20:11;;;;;;;13.07;6.78;;;23.30;97.30;;;;;;5049315;28;20103;-75
2023/05/23 08:22:36;;;;;;;10.48;6.82;;;23.10;97.10;;;;;;5040757;28;20045;-75
2023/05/23 08:25:02;;;;;;;9.05;6.10;;;23.10;97.00;;;;;;5045505;28;20123;-76
2023/05/23 08:27:29;;;;;;;8.07;6.10;;;22.90;97.10;;;;;;5040784;28;20112;-75
2023/05/23 08:29:54;;;;;;;9.82;6.82;;;22.90;96.70;;;;;;5040928;28;20138;-76
2023/05/23 08:32:20;;;;;;;9.90;6.78;;;23.10;97.40;;;;;;5044230;28;20494;-76
2023/05/23 08:34:45;;;;;;;10.55;6.60;;;23.00;97.10;;;;;;5051209;28;20043;-76
2023/05/23 08:37:11;;;;;;;8.10;6.57;;;23.40;97.00;;;;;;5043282;28;20043;-76
2023/05/23 08:39:37;;;;;;;9.18;6.70;;;23.50;96.90;;;;;;5049372;28;20391;-76
2023/05/23 08:42:03;;;;;;;11.93;7.10;;;23.40;96.20;;;;;;5040310;28;20028;-76
2023/05/23 08:44:29;;;;;;;12.02;7.03;;;23.50;96.60;;;;;;5040839;28;20484;-77
2023/05/23 08:46:57;;;;;;;8.80;6.05;;;23.60;97.00;;;;;;5044088;28;20029;-77
2023/05/23 08:49:23;;;;;;;11.43;7.28;;;23.60;95.90;;;;;;5040200;28;20083;-75
2023/05/23 08:51:51;;;;;;;7.90;5.78;;;23.00;95.90;;;;;;5039805;28;20420;-77
2023/05/23 08:54:17;;;;;;;7.35;5.63;;;23.10;96.90;;;;;;5048480;28;20029;-78
2023/05/23 08:56:44;;;;;;;12.30;6.93;;;23.40;96.10;;;;;;5048395;28;20221;-77
2023/05/23 08:59:11;;;;;;;9.07;6.90;;;23.50;96.20;;;;;;5039641;28;20032;-78
2023/05/23 09:01:40;;;;;;;8.95;7.05;;;23.40;96.50;;;;;;5040612;28;20049;-77
2023/05/23 09:04:06;;;;;;;10.25;6.80;;;23.70;96.90;;;;;;5046562;28;20017;-76
2023/05/23 09:06:31;;;;;;;10.20;6.28;;;24.00;95.80;;;;;;5040471;28;20029;-75
2023/05/23 09:08:57;;;;;;;10.23;6.50;;;24.10;95.90;;;;;;5040330;28;20021;-75
2023/05/23 09:11:24;;;;;;;9.73;6.47;;;23.90;95.80;;;;;;5047096;28;20113;-76
2023/05/23 09:13:50;;;;;;;11.95;7.13;;;24.20;95.40;;;;;;5040529;28;20624;-76
2023/05/23 09:16:18;;;;;;;9.13;6.35;;;24.10;95.10;;;;;;5042870;28;20027;-76
2023/05/23 09:18:44;;;;;;;14.00;6.40;;;24.30;95.40;;;;;;5047913;28;20041;-75
2023/05/23 09:21:12;;;;;;;10.45;6.82;;;24.30;94.80;;;;;;5048041;28;20029;-76
2023/05/23 09:23:40;;;;;;;11.20;6.97;;;24.20;94.80;;;;;;5040190;28;20609;-76
2023/05/23 09:26:08;;;;;;;14.88;7.00;;;24.30;95.30;;;;;;5041515;28;20108;-75
2023/05/23 09:28:35;;;;;;;10.73;6.15;;;24.40;96.10;;;;;;5048479;28;20033;-76
2023/05/23 09:31:03;;;;;;;13.18;7.20;;;24.90;95.50;;;;;;5042317;28;20025;-76
2023/05/23 09:33:39;;;;;;;9.25;6.57;;;24.90;95.40;;;;;;5048724;28;20048;-76
2023/05/23 09:36:06;;;;;;;10.02;6.60;;;25.00;95.70;;;;;;5043676;28;20418;-75
2023/05/23 09:38:36;;;;;;;9.52;6.63;;;25.00;94.80;;;;;;5049459;28;20041;-76
2023/05/23 09:41:03;;;;;;;12.25;6.53;;;24.90;95.10;;;;;;5042412;28;20025;-76
2023/05/23 09:43:28;;;;;;;11.13;6.82;;;25.50;95.50;;;;;;5041430;28;20091;-76
2023/05/23 09:45:55;;;;;;;8.95;6.80;;;25.20;94.90;;;;;;5050563;28;20024;-76
2023/05/23 09:48:28;;;;;;;10.57;6.53;;;25.40;94.60;;;;;;5043209;28;20101;-76
2023/05/23 09:50:54;;;;;;;;;;;25.40;94.70;;;;;;5049301;28;20029;-76
2023/05/23 09:53:21;;;;;;;10.05;6.85;;;25.80;95.20;;;;;;5052231;28;19912;-76
2023/05/23 09:55:53;;;;;;;11.48;7.22;;;25.60;93.80;;;;;;5050572;28;20041;-76
2023/05/23 09:58:21;;;;;;;8.43;6.82;;;25.30;94.30;;;;;;5049070;28;20830;-75
2023/05/23 10:00:51;;;;;;;7.95;5.80;;;25.70;94.80;;;;;;5051016;28;20032;-76
2023/05/23 10:03:22;;;;;;;9.57;6.18;;;25.60;94.60;;;;;;5041756;28;20021;-76
2023/05/23 10:05:52;;;;;;;8.45;6.28;;;25.30;95.00;;;;;;5045957;28;20502;-76
2023/05/23 10:08:37;;;;;;;9.70;6.82;;;25.10;94.80;;;;;;5046740;28;20048;-76
2023/05/23 10:11:06;;;;;;;9.23;6.45;;;25.40;94.60;;;;;;5040450;28;20543;-75
2023/05/23 10:13:33;;;;;;;9.50;7.30;;;25.20;94.80;;;;;;5047027;28;20120;-75
2023/05/23 10:16:05;;;;;;;11.20;7.60;;;25.00;94.30;;;;;;5043294;28;20047;-75
2023/05/23 10:18:38;;;;;;;8.75;6.82;;;25.20;95.40;;;;;;5044176;28;20052;-76
2023/05/23 10:21:10;;;;;;;12.23;6.75;;;25.20;95.00;;;;;;5043831;28;20036;-75
2023/05/23 10:23:38;;;;;;;10.10;6.53;;;25.30;95.00;;;;;;5039918;28;21020;-75
2023/05/23 10:26:04;;;;;;;11.93;7.28;;;25.30;94.90;;;;;;5040997;28;20138;-76
2023/05/23 10:28:33;;;;;;;10.10;6.28;;;25.50;95.20;;;;;;5039628;28;20067;-75
2023/05/23 10:30:59;;;;;;;10.13;5.82;;;26.00;93.70;;;;;;5053409;28;20210;-76
2023/05/23 10:33:27;;;;;;;13.73;6.07;;;26.10;92.70;;;;;;5041715;28;20047;-75
2023/05/23 10:36:11;;;;;;;10.20;6.43;;;25.70;93.00;;;;;;5042629;28;20028;-75
2023/05/23 10:38:48;;;;;;;12.07;6.97;;;25.70;94.30;;;;;;5047203;28;20045;-75
2023/05/23 10:41:35;;;;;;;9.27;6.28;;;25.70;94.20;;;;;;5048253;28;20029;-76
2023/05/23 10:44:10;;;;;;;13.23;7.55;;;25.70;93.10;;;;;;5042811;28;20029;-76
2023/05/23 10:46:52;;;;;;;8.63;5.43;;;25.90;93.00;;;;;;5048214;28;20120;-75
2023/05/23 10:49:18;;;;;;;12.75;7.47;;;26.10;92.70;;;;;;5052852;28;20036;-76
2023/05/23 10:51:53;;;;;;;7.75;5.40;;;26.30;92.30;;;;;;5044484;28;20029;-76
2023/05/23 10:54:19;;;;;;;8.85;6.43;;;26.40;92.80;;;;;;5043700;28;20045;-76
2023/05/23 10:56:45;;;;;;;8.40;6.13;;;26.20;93.20;;;;;;5045899;28;20037;-77
2023/05/23 10:59:21;;;;;;;7.75;6.10;;;26.60;93.80;;;;;;5046085;28;20067;-76
2023/05/23 11:01:50;;;;;;;10.20;6.25;;;26.60;93.40;;;;;;5042937;28;20037;-75
2023/05/23 11:04:25;;;;;;;10.07;6.20;;;26.70;93.20;;;;;;5042697;28;20032;-76
2023/05/23 11:06:53;;;;;;;12.50;6.65;;;26.60;93.30;;;;;;5043221;28;20021;-75
2023/05/23 11:09:20;;;;;;;8.30;6.40;;;26.80;94.50;;;;;;5043681;28;20119;-76
2023/05/23 11:12:06;;;;;;;9.13;6.55;;;26.80;94.40;;;;;;5050674;28;20055;-75
2023/05/23 11:14:36;;;;;;;11.48;7.00;;;27.20;93.90;;;;;;5047671;28;20017;-76
2023/05/23 11:17:11;;;;;;;11.85;6.43;;;27.30;93.60;;;;;;5042741;28;20025;-76
2023/05/23 11:19:38;;;;;;;8.13;5.95;;;27.30;93.10;;;;;;5043253;28;20045;-76
2023/05/23 11:22:07;;;;;;;9.35;5.50;;;26.70;92.60;;;;;;5043520;28;20497;-76
2023/05/23 11:24:54;;;;;;;12.40;6.05;;;27.00;92.60;;;;;;5043798;28;20068;-76
2023/05/23 11:27:34;;;;;;;8.93;6.15;;;27.20;92.50;;;;;;5041928;28;20029;-76
2023/05/23 11:30:02;;;;;;;8.52;5.72;;;27.30;92.50;;;;;;5051656;28;20025;-76
2023/05/23 11:32:30;;;;;;;8.02;5.82;;;27.70;92.70;;;;;;5053323;28;20041;-76
2023/05/23 11:35:02;;;;;;;9.85;5.47;;;28.00;93.20;;;;;;5043029;28;20028;-76
2023/05/23 11:37:29;;;;;;;7.22;5.03;;;27.80;90.00;;;;;;5043022;28;20029;-76
2023/05/23 11:39:55;;;;;;;6.82;4.95;;;27.80;90.60;;;;;;5046673;28;20029;-76
2023/05/23 11:42:21;;;;;;;11.02;5.05;;;27.60;91.60;;;;;;5042131;28;20502;-76
2023/05/23 11:44:51;;;;;;;7.43;4.78;;;28.20;92.50;;;;;;5042390;28;20025;-76
2023/05/23 11:47:17;;;;;;;8.32;4.95;;;27.90;91.10;;;;;;5043391;28;20032;-76
2023/05/23 11:49:47;;;;;;;9.85;5.03;;;27.90;90.80;;;;;;5046898;28;20052;-76
2023/05/23 11:52:13;;;;;;;6.50;4.82;;;28.30;89.10;;;;;;5043763;28;20033;-76
2023/05/23 11:54:45;;;;;;;9.55;4.88;;;28.70;90.50;;;;;;5043796;28;20029;-76
2023/05/23 11:57:13;;;;;;;6.50;4.55;;;28.70;90.40;;;;;;5042916;28;20299;-76
2023/05/23 11:59:39;;;;;;;9.57;5.07;;;28.70;90.10;;;;;;5048586;28;20037;-76
2023/05/23 12:02:06;;;;;;;8.65;5.20;;;28.50;90.10;;;;;;5045638;28;20036;-75
2023/05/23 12:04:35;;;;;;;7.55;4.97;;;28.40;90.10;;;;;;5047478;28;20018;-76
2023/05/23 12:07:05;;;;;;;8.32;4.63;;;28.60;90.00;;;;;;5044956;28;20597;-76
2023/05/23 12:09:31;;;;;;;7.03;4.80;;;28.60;87.70;;;;;;5054476;28;20016;-76
2023/05/23 12:11:56;;;;;;;6.25;4.28;;;28.80;90.10;;;;;;5045380;28;20487;-76
2023/05/23 12:14:22;;;;;;;8.32;5.20;;;28.60;88.40;;;;;;5044256;28;20028;-76
2023/05/23 12:16:48;;;;;;;8.43;4.65;;;28.60;90.00;;;;;;5050392;28;20032;-76
2023/05/23 12:19:16;;;;;;;7.40;4.72;;;28.50;89.30;;;;;;5047624;28;20033;-76
2023/05/23 12:21:48;;;;;;;6.82;3.92;;;28.60;87.60;;;;;;5045375;28;20037;-75
2023/05/23 12:24:19;;;;;;;25.27;4.75;;;28.70;87.20;;;;;;5045539;28;20525;-76
2023/05/23 12:26:52;;;;;;;6.38;4.18;;;28.80;89.30;;;;;;5044770;28;20107;-76
2023/05/23 12:29:26;;;;;;;6.30;4.38;;;28.70;87.90;;;;;;5051076;28;20131;-76
2023/05/23 12:31:52;;;;;;;7.15;4.85;;;29.00;87.90;;;;;;5057036;28;20107;-76
2023/05/23 12:34:20;;;;;;;7.70;3.70;;;29.60;88.50;;;;;;5044133;28;20104;-76
2023/05/23 12:36:48;;;;;;;11.80;4.43;;;29.40;86.10;;;;;;5047020;28;20033;-76
2023/05/23 12:39:14;;;;;;;8.02;4.43;;;29.40;86.00;;;;;;5050467;28;20119;-75
2023/05/23 12:41:44;;;;;;;9.73;4.35;;;29.00;87.80;;;;;;5050978;28;20039;-74